sensor_id;sensor_type;location;lat;lon;timestamp;temperature;humidity
75170;SHT31;63749;49.186;9.222;2024-02-26T00:01:35;7.31;78.69
75170;SHT31;63749;49.186;9.222;2024-02-26T00:04:01;7.29;78.48
75170;SHT31;63749;49.186;9.222;2024-02-26T00:06:28;7.25;78.71
75170;SHT31;63749;49.186;9.222;2024-02-26T00:08:53;7.22;78.64
75170;SHT31;63749;49.186;9.222;2024-02-26T00:11:18;7.15;78.75
75170;SHT31;63749;49.186;9.222;2024-02-26T00:13:44;7.09;79.35
75170;SHT31;63749;49.186;9.222;2024-02-26T00:16:09;7.11;79.24
75170;SHT31;63749;49.186;9.222;2024-02-26T00:18:34;7.11;79.33
75170;SHT31;63749;49.186;9.222;2024-02-26T00:21:00;7.07;79.35
75170;SHT31;63749;49.186;9.222;2024-02-26T00:23:25;7.04;79.70
75170;SHT31;63749;49.186;9.222;2024-02-26T00:25:52;7.00;79.84
75170;SHT31;63749;49.186;9.222;2024-02-26T00:28:17;7.00;79.77
75170;SHT31;63749;49.186;9.222;2024-02-26T00:30:45;6.95;80.14
75170;SHT31;63749;49.186;9.222;2024-02-26T00:33:10;6.90;80.47
75170;SHT31;63749;49.186;9.222;2024-02-26T00:35:35;6.87;80.86
75170;SHT31;63749;49.186;9.222;2024-02-26T00:38:01;6.83;81.06
75170;SHT31;63749;49.186;9.222;2024-02-26T00:40:28;6.84;81.40
75170;SHT31;63749;49.186;9.222;2024-02-26T00:42:53;6.80;81.65
75170;SHT31;63749;49.186;9.222;2024-02-26T00:45:19;6.77;81.69
75170;SHT31;63749;49.186;9.222;2024-02-26T00:47:44;6.70;82.12
75170;SHT31;63749;49.186;9.222;2024-02-26T00:50:12;6.70;82.35
75170;SHT31;63749;49.186;9.222;2024-02-26T00:52:37;6.66;82.40
75170;SHT31;63749;49.186;9.222;2024-02-26T00:55:03;6.63;82.46
75170;SHT31;63749;49.186;9.222;2024-02-26T00:57:29;6.62;82.49
75170;SHT31;63749;49.186;9.222;2024-02-26T00:59:54;6.57;82.67
75170;SHT31;63749;49.186;9.222;2024-02-26T01:02:22;6.52;82.98
75170;SHT31;63749;49.186;9.222;2024-02-26T01:04:47;6.46;83.70
75170;SHT31;63749;49.186;9.222;2024-02-26T01:07:13;6.46;83.13
75170;SHT31;63749;49.186;9.222;2024-02-26T01:09:38;6.47;83.03
75170;SHT31;63749;49.186;9.222;2024-02-26T01:12:04;6.46;83.07
75170;SHT31;63749;49.186;9.222;2024-02-26T01:14:29;6.45;83.03
75170;SHT31;63749;49.186;9.222;2024-02-26T01:16:54;6.49;82.76
75170;SHT31;63749;49.186;9.222;2024-02-26T01:19:21;6.45;83.01
75170;SHT31;63749;49.186;9.222;2024-02-26T01:21:46;6.47;82.90
75170;SHT31;63749;49.186;9.222;2024-02-26T01:24:11;6.50;83.09
75170;SHT31;63749;49.186;9.222;2024-02-26T01:26:37;6.49;82.97
75170;SHT31;63749;49.186;9.222;2024-02-26T01:29:02;6.52;83.05
75170;SHT31;63749;49.186;9.222;2024-02-26T01:31:28;6.56;82.86
75170;SHT31;63749;49.186;9.222;2024-02-26T01:33:53;6.57;82.48
75170;SHT31;63749;49.186;9.222;2024-02-26T01:36:19;6.62;82.54
75170;SHT31;63749;49.186;9.222;2024-02-26T01:38:44;6.64;82.43
75170;SHT31;63749;49.186;9.222;2024-02-26T01:41:09;6.66;82.91
75170;SHT31;63749;49.186;9.222;2024-02-26T01:43:35;6.64;82.83
75170;SHT31;63749;49.186;9.222;2024-02-26T01:46:00;6.63;83.20
75170;SHT31;63749;49.186;9.222;2024-02-26T01:48:26;6.60;83.30
75170;SHT31;63749;49.186;9.222;2024-02-26T01:50:51;6.67;83.28
75170;SHT31;63749;49.186;9.222;2024-02-26T01:53:18;6.73;82.99
75170;SHT31;63749;49.186;9.222;2024-02-26T01:55:44;6.66;83.15
75170;SHT31;63749;49.186;9.222;2024-02-26T01:58:10;6.60;83.35
75170;SHT31;63749;49.186;9.222;2024-02-26T02:00:37;6.56;83.55
75170;SHT31;63749;49.186;9.222;2024-02-26T02:03:03;6.57;83.46
75170;SHT31;63749;49.186;9.222;2024-02-26T02:05:31;6.64;83.21
75170;SHT31;63749;49.186;9.222;2024-02-26T02:07:56;6.63;83.02
75170;SHT31;63749;49.186;9.222;2024-02-26T02:10:22;6.60;83.44
75170;SHT31;63749;49.186;9.222;2024-02-26T02:12:49;6.60;83.43
75170;SHT31;63749;49.186;9.222;2024-02-26T02:15:14;6.57;83.56
75170;SHT31;63749;49.186;9.222;2024-02-26T02:17:40;6.56;83.69
75170;SHT31;63749;49.186;9.222;2024-02-26T02:20:09;6.58;83.91
75170;SHT31;63749;49.186;9.222;2024-02-26T02:22:35;6.62;84.12
75170;SHT31;63749;49.186;9.222;2024-02-26T02:25:00;6.62;83.97
75170;SHT31;63749;49.186;9.222;2024-02-26T02:27:27;6.60;84.35
75170;SHT31;63749;49.186;9.222;2024-02-26T02:29:53;6.56;84.32
75170;SHT31;63749;49.186;9.222;2024-02-26T02:32:19;6.58;83.88
75170;SHT31;63749;49.186;9.222;2024-02-26T02:34:45;6.62;83.27
75170;SHT31;63749;49.186;9.222;2024-02-26T02:37:10;6.62;83.05
75170;SHT31;63749;49.186;9.222;2024-02-26T02:39:36;6.63;82.87
75170;SHT31;63749;49.186;9.222;2024-02-26T02:42:01;6.72;82.50
75170;SHT31;63749;49.186;9.222;2024-02-26T02:44:27;6.83;81.12
75170;SHT31;63749;49.186;9.222;2024-02-26T02:46:52;6.77;81.85
75170;SHT31;63749;49.186;9.222;2024-02-26T02:49:18;6.76;81.62
75170;SHT31;63749;49.186;9.222;2024-02-26T02:51:43;7.00;81.38
75170;SHT31;63749;49.186;9.222;2024-02-26T02:54:12;7.11;81.24
75170;SHT31;63749;49.186;9.222;2024-02-26T02:56:38;7.11;81.31
75170;SHT31;63749;49.186;9.222;2024-02-26T02:59:03;6.94;81.87
75170;SHT31;63749;49.186;9.222;2024-02-26T03:01:28;6.91;82.13
75170;SHT31;63749;49.186;9.222;2024-02-26T03:03:54;6.88;82.47
75170;SHT31;63749;49.186;9.222;2024-02-26T03:06:20;6.84;82.51
75170;SHT31;63749;49.186;9.222;2024-02-26T03:08:46;6.81;82.78
75170;SHT31;63749;49.186;9.222;2024-02-26T03:11:14;6.73;83.68
75170;SHT31;63749;49.186;9.222;2024-02-26T03:13:40;6.69;83.65
75170;SHT31;63749;49.186;9.222;2024-02-26T03:16:06;6.70;83.34
75170;SHT31;63749;49.186;9.222;2024-02-26T03:18:31;6.69;83.22
75170;SHT31;63749;49.186;9.222;2024-02-26T03:20:57;6.74;83.44
75170;SHT31;63749;49.186;9.222;2024-02-26T03:23:22;6.83;82.65
75170;SHT31;63749;49.186;9.222;2024-02-26T03:25:47;6.87;82.37
75170;SHT31;63749;49.186;9.222;2024-02-26T03:28:13;6.83;82.74
75170;SHT31;63749;49.186;9.222;2024-02-26T03:30:39;6.80;82.66
75170;SHT31;63749;49.186;9.222;2024-02-26T03:33:04;6.81;82.53
75170;SHT31;63749;49.186;9.222;2024-02-26T03:35:29;6.84;82.46
75170;SHT31;63749;49.186;9.222;2024-02-26T03:37:55;6.84;82.59
75170;SHT31;63749;49.186;9.222;2024-02-26T03:40:21;6.83;83.11
75170;SHT31;63749;49.186;9.222;2024-02-26T03:42:49;6.80;83.09
75170;SHT31;63749;49.186;9.222;2024-02-26T03:45:14;6.80;83.10
75170;SHT31;63749;49.186;9.222;2024-02-26T03:47:40;6.84;83.44
75170;SHT31;63749;49.186;9.222;2024-02-26T03:50:06;6.83;83.61
75170;SHT31;63749;49.186;9.222;2024-02-26T03:52:32;6.84;83.98
75170;SHT31;63749;49.186;9.222;2024-02-26T03:54:58;6.77;84.38
75170;SHT31;63749;49.186;9.222;2024-02-26T03:57:23;6.80;84.91
75170;SHT31;63749;49.186;9.222;2024-02-26T03:59:49;6.80;84.90
75170;SHT31;63749;49.186;9.222;2024-02-26T04:02:14;6.79;85.47
75170;SHT31;63749;49.186;9.222;2024-02-26T04:04:39;6.72;85.72
75170;SHT31;63749;49.186;9.222;2024-02-26T04:07:05;6.69;85.95
75170;SHT31;63749;49.186;9.222;2024-02-26T04:09:33;6.72;86.51
75170;SHT31;63749;49.186;9.222;2024-02-26T04:11:58;6.66;86.69
75170;SHT31;63749;49.186;9.222;2024-02-26T04:14:24;6.63;87.07
75170;SHT31;63749;49.186;9.222;2024-02-26T04:16:49;6.64;87.16
75170;SHT31;63749;49.186;9.222;2024-02-26T04:19:17;6.63;87.63
75170;SHT31;63749;49.186;9.222;2024-02-26T04:21:43;6.60;88.28
75170;SHT31;63749;49.186;9.222;2024-02-26T04:24:08;6.62;88.25
75170;SHT31;63749;49.186;9.222;2024-02-26T04:26:34;6.60;87.81
75170;SHT31;63749;49.186;9.222;2024-02-26T04:29:00;6.58;88.05
75170;SHT31;63749;49.186;9.222;2024-02-26T04:31:25;6.56;88.21
75170;SHT31;63749;49.186;9.222;2024-02-26T04:33:51;6.58;88.54
75170;SHT31;63749;49.186;9.222;2024-02-26T04:36:18;6.56;88.73
75170;SHT31;63749;49.186;9.222;2024-02-26T04:38:44;6.56;88.83
75170;SHT31;63749;49.186;9.222;2024-02-26T04:41:09;6.57;88.47
75170;SHT31;63749;49.186;9.222;2024-02-26T04:43:35;6.57;89.14
75170;SHT31;63749;49.186;9.222;2024-02-26T04:46:09;6.60;88.35
75170;SHT31;63749;49.186;9.222;2024-02-26T04:48:35;6.60;88.46
75170;SHT31;63749;49.186;9.222;2024-02-26T04:51:01;6.62;89.13
75170;SHT31;63749;49.186;9.222;2024-02-26T04:53:27;6.57;90.06
75170;SHT31;63749;49.186;9.222;2024-02-26T04:55:52;6.50;90.60
75170;SHT31;63749;49.186;9.222;2024-02-26T04:58:17;6.52;90.08
75170;SHT31;63749;49.186;9.222;2024-02-26T05:00:43;6.46;90.04
75170;SHT31;63749;49.186;9.222;2024-02-26T05:03:09;6.47;90.37
75170;SHT31;63749;49.186;9.222;2024-02-26T05:05:38;6.46;90.38
75170;SHT31;63749;49.186;9.222;2024-02-26T05:08:04;6.47;90.51
75170;SHT31;63749;49.186;9.222;2024-02-26T05:10:29;6.45;91.14
75170;SHT31;63749;49.186;9.222;2024-02-26T05:12:54;6.49;90.74
75170;SHT31;63749;49.186;9.222;2024-02-26T05:15:20;6.47;90.76
75170;SHT31;63749;49.186;9.222;2024-02-26T05:17:46;6.42;90.69
75170;SHT31;63749;49.186;9.222;2024-02-26T05:20:11;6.45;90.72
75170;SHT31;63749;49.186;9.222;2024-02-26T05:22:39;6.40;91.02
75170;SHT31;63749;49.186;9.222;2024-02-26T05:25:05;6.37;91.08
75170;SHT31;63749;49.186;9.222;2024-02-26T05:27:30;6.33;90.55
75170;SHT31;63749;49.186;9.222;2024-02-26T05:29:56;6.36;90.97
75170;SHT31;63749;49.186;9.222;2024-02-26T05:32:21;6.36;91.16
75170;SHT31;63749;49.186;9.222;2024-02-26T05:34:47;6.39;90.71
75170;SHT31;63749;49.186;9.222;2024-02-26T05:37:12;6.43;90.50
75170;SHT31;63749;49.186;9.222;2024-02-26T05:39:37;6.45;90.35
75170;SHT31;63749;49.186;9.222;2024-02-26T05:42:04;6.47;90.87
75170;SHT31;63749;49.186;9.222;2024-02-26T05:44:29;6.42;90.55
75170;SHT31;63749;49.186;9.222;2024-02-26T05:46:55;6.37;90.72
75170;SHT31;63749;49.186;9.222;2024-02-26T05:49:20;6.42;90.78
75170;SHT31;63749;49.186;9.222;2024-02-26T05:51:46;6.39;90.99
75170;SHT31;63749;49.186;9.222;2024-02-26T05:54:12;6.45;90.76
75170;SHT31;63749;49.186;9.222;2024-02-26T05:56:37;6.40;90.89
75170;SHT31;63749;49.186;9.222;2024-02-26T05:59:02;6.42;90.80
75170;SHT31;63749;49.186;9.222;2024-02-26T06:01:28;6.46;91.23
75170;SHT31;63749;49.186;9.222;2024-02-26T06:03:53;6.45;90.66
75170;SHT31;63749;49.186;9.222;2024-02-26T06:06:18;6.50;90.66
75170;SHT31;63749;49.186;9.222;2024-02-26T06:08:44;6.52;90.58
75170;SHT31;63749;49.186;9.222;2024-02-26T06:11:09;6.56;89.70
75170;SHT31;63749;49.186;9.222;2024-02-26T06:13:35;6.54;90.05
75170;SHT31;63749;49.186;9.222;2024-02-26T06:16:00;6.53;90.17
75170;SHT31;63749;49.186;9.222;2024-02-26T06:18:26;6.53;90.34
75170;SHT31;63749;49.186;9.222;2024-02-26T06:20:51;6.52;90.06
75170;SHT31;63749;49.186;9.222;2024-02-26T06:23:16;6.53;89.67
75170;SHT31;63749;49.186;9.222;2024-02-26T06:25:42;6.56;89.64
75170;SHT31;63749;49.186;9.222;2024-02-26T06:28:10;6.60;89.35
75170;SHT31;63749;49.186;9.222;2024-02-26T06:30:36;6.69;89.95
75170;SHT31;63749;49.186;9.222;2024-02-26T06:33:01;6.67;89.85
75170;SHT31;63749;49.186;9.222;2024-02-26T06:35:28;6.63;90.34
75170;SHT31;63749;49.186;9.222;2024-02-26T06:37:53;6.53;91.28
75170;SHT31;63749;49.186;9.222;2024-02-26T06:40:19;6.83;91.76
75170;SHT31;63749;49.186;9.222;2024-02-26T06:42:44;6.80;90.44
75170;SHT31;63749;49.186;9.222;2024-02-26T06:45:10;6.85;89.75
75170;SHT31;63749;49.186;9.222;2024-02-26T06:47:35;7.51;90.04
75170;SHT31;63749;49.186;9.222;2024-02-26T06:50:01;7.43;88.82
75170;SHT31;63749;49.186;9.222;2024-02-26T06:52:26;7.24;88.68
75170;SHT31;63749;49.186;9.222;2024-02-26T06:54:52;7.21;89.74
75170;SHT31;63749;49.186;9.222;2024-02-26T06:57:19;7.11;89.55
75170;SHT31;63749;49.186;9.222;2024-02-26T06:59:44;6.97;89.89
75170;SHT31;63749;49.186;9.222;2024-02-26T07:02:12;6.87;90.29
75170;SHT31;63749;49.186;9.222;2024-02-26T07:04:38;6.90;90.43
75170;SHT31;63749;49.186;9.222;2024-02-26T07:07:03;6.94;90.58
75170;SHT31;63749;49.186;9.222;2024-02-26T07:09:28;6.98;90.48
75170;SHT31;63749;49.186;9.222;2024-02-26T07:11:54;7.25;91.41
75170;SHT31;63749;49.186;9.222;2024-02-26T07:14:19;7.32;90.43
75170;SHT31;63749;49.186;9.222;2024-02-26T07:16:44;7.22;89.67
75170;SHT31;63749;49.186;9.222;2024-02-26T07:19:10;7.48;90.37
75170;SHT31;63749;49.186;9.222;2024-02-26T07:21:35;7.42;89.95
75170;SHT31;63749;49.186;9.222;2024-02-26T07:24:00;7.83;94.97
75170;SHT31;63749;49.186;9.222;2024-02-26T07:26:26;8.13;91.31
75170;SHT31;63749;49.186;9.222;2024-02-26T07:28:51;8.42;92.90
75170;SHT31;63749;49.186;9.222;2024-02-26T07:31:19;8.41;88.43
75170;SHT31;63749;49.186;9.222;2024-02-26T07:33:45;8.66;86.98
75170;SHT31;63749;49.186;9.222;2024-02-26T07:36:11;8.71;85.20
75170;SHT31;63749;49.186;9.222;2024-02-26T07:38:36;8.72;87.79
75170;SHT31;63749;49.186;9.222;2024-02-26T07:41:02;8.76;85.91
75170;SHT31;63749;49.186;9.222;2024-02-26T07:43:28;9.52;85.55
75170;SHT31;63749;49.186;9.222;2024-02-26T07:45:54;9.51;82.74
75170;SHT31;63749;49.186;9.222;2024-02-26T07:48:19;9.93;83.68
75170;SHT31;63749;49.186;9.222;2024-02-26T07:50:45;9.30;83.16
75170;SHT31;63749;49.186;9.222;2024-02-26T07:53:10;9.99;83.60
75170;SHT31;63749;49.186;9.222;2024-02-26T07:55:36;10.24;82.87
75170;SHT31;63749;49.186;9.222;2024-02-26T07:58:01;9.93;79.79
75170;SHT31;63749;49.186;9.222;2024-02-26T08:00:26;9.34;82.46
75170;SHT31;63749;49.186;9.222;2024-02-26T08:02:52;9.92;81.96
75170;SHT31;63749;49.186;9.222;2024-02-26T08:05:17;9.85;82.88
75170;SHT31;63749;49.186;9.222;2024-02-26T08:07:42;9.34;81.93
75170;SHT31;63749;49.186;9.222;2024-02-26T08:10:08;9.10;83.83
75170;SHT31;63749;49.186;9.222;2024-02-26T08:12:33;9.04;83.43
75170;SHT31;63749;49.186;9.222;2024-02-26T08:14:59;10.33;82.39
75170;SHT31;63749;49.186;9.222;2024-02-26T08:17:25;10.41;79.16
75170;SHT31;63749;49.186;9.222;2024-02-26T08:19:50;10.67;79.66
75170;SHT31;63749;49.186;9.222;2024-02-26T08:22:16;9.89;80.68
75170;SHT31;63749;49.186;9.222;2024-02-26T08:24:43;9.35;81.47
75170;SHT31;63749;49.186;9.222;2024-02-26T08:27:08;9.26;82.91
75170;SHT31;63749;49.186;9.222;2024-02-26T08:29:33;8.92;84.79
75170;SHT31;63749;49.186;9.222;2024-02-26T08:31:59;8.92;84.26
75170;SHT31;63749;49.186;9.222;2024-02-26T08:34:24;8.83;84.14
75170;SHT31;63749;49.186;9.222;2024-02-26T08:36:50;8.89;84.51
75170;SHT31;63749;49.186;9.222;2024-02-26T08:39:16;8.92;84.28
75170;SHT31;63749;49.186;9.222;2024-02-26T08:41:43;8.90;84.67
75170;SHT31;63749;49.186;9.222;2024-02-26T08:44:08;8.71;84.21
75170;SHT31;63749;49.186;9.222;2024-02-26T08:46:33;8.79;84.78
75170;SHT31;63749;49.186;9.222;2024-02-26T08:48:58;8.82;84.81
75170;SHT31;63749;49.186;9.222;2024-02-26T08:51:24;9.12;84.28
75170;SHT31;63749;49.186;9.222;2024-02-26T08:53:49;9.35;83.21
75170;SHT31;63749;49.186;9.222;2024-02-26T08:56:16;9.62;82.76
75170;SHT31;63749;49.186;9.222;2024-02-26T08:58:43;9.74;82.52
75170;SHT31;63749;49.186;9.222;2024-02-26T09:01:08;9.86;82.29
75170;SHT31;63749;49.186;9.222;2024-02-26T09:03:33;9.91;82.17
75170;SHT31;63749;49.186;9.222;2024-02-26T09:05:59;9.86;82.00
75170;SHT31;63749;49.186;9.222;2024-02-26T09:08:24;9.93;81.97
75170;SHT31;63749;49.186;9.222;2024-02-26T09:10:49;9.82;82.72
75170;SHT31;63749;49.186;9.222;2024-02-26T09:13:15;9.58;84.31
75170;SHT31;63749;49.186;9.222;2024-02-26T09:15:40;9.41;84.62
75170;SHT31;63749;49.186;9.222;2024-02-26T09:18:06;9.50;85.22
75170;SHT31;63749;49.186;9.222;2024-02-26T09:20:31;9.67;85.28
75170;SHT31;63749;49.186;9.222;2024-02-26T09:22:56;9.74;85.39
75170;SHT31;63749;49.186;9.222;2024-02-26T09:25:22;9.99;84.42
75170;SHT31;63749;49.186;9.222;2024-02-26T09:27:47;9.99;85.25
75170;SHT31;63749;49.186;9.222;2024-02-26T09:30:13;10.06;84.11
75170;SHT31;63749;49.186;9.222;2024-02-26T09:32:39;9.92;84.59
75170;SHT31;63749;49.186;9.222;2024-02-26T09:35:06;9.77;85.18
75170;SHT31;63749;49.186;9.222;2024-02-26T09:37:31;9.77;85.62
75170;SHT31;63749;49.186;9.222;2024-02-26T09:39:57;9.99;85.72
75170;SHT31;63749;49.186;9.222;2024-02-26T09:42:25;9.96;85.31
75170;SHT31;63749;49.186;9.222;2024-02-26T09:44:53;10.16;85.05
75170;SHT31;63749;49.186;9.222;2024-02-26T09:47:19;10.32;85.11
75170;SHT31;63749;49.186;9.222;2024-02-26T09:49:47;10.46;83.72
75170;SHT31;63749;49.186;9.222;2024-02-26T09:52:14;10.71;84.06
75170;SHT31;63749;49.186;9.222;2024-02-26T09:54:40;10.95;82.30
75170;SHT31;63749;49.186;9.222;2024-02-26T09:57:09;11.08;81.95
75170;SHT31;63749;49.186;9.222;2024-02-26T09:59:41;11.15;81.63
75170;SHT31;63749;49.186;9.222;2024-02-26T10:02:12;11.22;81.15
75170;SHT31;63749;49.186;9.222;2024-02-26T10:04:39;11.38;80.71
75170;SHT31;63749;49.186;9.222;2024-02-26T10:07:11;11.32;80.55
75170;SHT31;63749;49.186;9.222;2024-02-26T10:09:36;11.50;80.39
75170;SHT31;63749;49.186;9.222;2024-02-26T10:12:03;11.59;79.67
75170;SHT31;63749;49.186;9.222;2024-02-26T10:14:30;11.53;79.30
75170;SHT31;63749;49.186;9.222;2024-02-26T10:16:55;11.69;79.79
75170;SHT31;63749;49.186;9.222;2024-02-26T10:19:28;11.79;79.38
75170;SHT31;63749;49.186;9.222;2024-02-26T10:22:00;11.94;78.36
75170;SHT31;63749;49.186;9.222;2024-02-26T10:24:26;12.08;78.49
75170;SHT31;63749;49.186;9.222;2024-02-26T10:26:53;12.41;77.69
75170;SHT31;63749;49.186;9.222;2024-02-26T10:29:20;12.58;75.82
75170;SHT31;63749;49.186;9.222;2024-02-26T10:31:45;12.66;75.65
75170;SHT31;63749;49.186;9.222;2024-02-26T10:34:11;12.66;75.46
75170;SHT31;63749;49.186;9.222;2024-02-26T10:36:36;12.82;76.07
75170;SHT31;63749;49.186;9.222;2024-02-26T10:39:04;13.10;76.84
75170;SHT31;63749;49.186;9.222;2024-02-26T10:41:30;13.43;74.67
75170;SHT31;63749;49.186;9.222;2024-02-26T10:43:56;13.47;73.07
75170;SHT31;63749;49.186;9.222;2024-02-26T10:46:22;12.83;73.17
75170;SHT31;63749;49.186;9.222;2024-02-26T10:48:51;12.99;73.83
75170;SHT31;63749;49.186;9.222;2024-02-26T10:51:19;13.24;73.98
75170;SHT31;63749;49.186;9.222;2024-02-26T10:53:47;13.34;72.68
75170;SHT31;63749;49.186;9.222;2024-02-26T10:56:15;13.41;71.35
75170;SHT31;63749;49.186;9.222;2024-02-26T10:58:42;13.64;71.37
75170;SHT31;63749;49.186;9.222;2024-02-26T11:01:10;13.75;71.51
75170;SHT31;63749;49.186;9.222;2024-02-26T11:03:36;13.95;70.42
75170;SHT31;63749;49.186;9.222;2024-02-26T11:06:04;13.95;70.05
75170;SHT31;63749;49.186;9.222;2024-02-26T11:08:31;13.99;69.20
75170;SHT31;63749;49.186;9.222;2024-02-26T11:10:57;13.89;69.00
75170;SHT31;63749;49.186;9.222;2024-02-26T11:13:27;13.81;67.92
75170;SHT31;63749;49.186;9.222;2024-02-26T11:15:56;14.04;67.34
75170;SHT31;63749;49.186;9.222;2024-02-26T11:18:23;14.25;67.51
75170;SHT31;63749;49.186;9.222;2024-02-26T11:20:49;14.46;67.92
75170;SHT31;63749;49.186;9.222;2024-02-26T11:23:15;14.50;68.72
75170;SHT31;63749;49.186;9.222;2024-02-26T11:25:41;14.60;66.30
75170;SHT31;63749;49.186;9.222;2024-02-26T11:28:10;14.59;66.39
75170;SHT31;63749;49.186;9.222;2024-02-26T11:30:41;14.43;67.33
75170;SHT31;63749;49.186;9.222;2024-02-26T11:33:08;14.27;63.54
75170;SHT31;63749;49.186;9.222;2024-02-26T11:35:38;14.43;62.22
75170;SHT31;63749;49.186;9.222;2024-02-26T11:38:04;14.84;63.03
75170;SHT31;63749;49.186;9.222;2024-02-26T11:40:32;14.89;61.66
75170;SHT31;63749;49.186;9.222;2024-02-26T11:42:57;14.60;60.22
75170;SHT31;63749;49.186;9.222;2024-02-26T11:48:22;14.71;59.58
75170;SHT31;63749;49.186;9.222;2024-02-26T11:50:53;14.54;60.80
75170;SHT31;63749;49.186;9.222;2024-02-26T11:53:28;14.38;60.72
75170;SHT31;63749;49.186;9.222;2024-02-26T11:59:03;14.81;60.06
75170;SHT31;63749;49.186;9.222;2024-02-26T12:01:48;15.02;60.86
75170;SHT31;63749;49.186;9.222;2024-02-26T12:06:55;14.92;60.34
75170;SHT31;63749;49.186;9.222;2024-02-26T12:11:56;15.15;58.83
75170;SHT31;63749;49.186;9.222;2024-02-26T12:14:25;15.45;57.29
75170;SHT31;63749;49.186;9.222;2024-02-26T12:16:51;15.53;59.03
75170;SHT31;63749;49.186;9.222;2024-02-26T12:19:18;15.16;57.73
75170;SHT31;63749;49.186;9.222;2024-02-26T12:21:44;15.02;57.89
75170;SHT31;63749;49.186;9.222;2024-02-26T12:24:13;15.29;58.57
75170;SHT31;63749;49.186;9.222;2024-02-26T12:26:40;15.35;58.72
75170;SHT31;63749;49.186;9.222;2024-02-26T12:29:05;15.49;57.81
75170;SHT31;63749;49.186;9.222;2024-02-26T12:31:32;15.57;58.76
75170;SHT31;63749;49.186;9.222;2024-02-26T12:33:58;15.39;58.19
75170;SHT31;63749;49.186;9.222;2024-02-26T12:36:24;15.33;58.77
75170;SHT31;63749;49.186;9.222;2024-02-26T12:38:50;15.31;59.09
75170;SHT31;63749;49.186;9.222;2024-02-26T12:41:16;15.01;57.55
75170;SHT31;63749;49.186;9.222;2024-02-26T12:43:41;15.21;56.81
75170;SHT31;63749;49.186;9.222;2024-02-26T12:46:07;15.49;56.92
75170;SHT31;63749;49.186;9.222;2024-02-26T12:48:33;15.46;56.43
75170;SHT31;63749;49.186;9.222;2024-02-26T12:50:59;15.96;55.11
75170;SHT31;63749;49.186;9.222;2024-02-26T12:53:25;15.80;55.74
75170;SHT31;63749;49.186;9.222;2024-02-26T12:55:50;16.04;55.15
75170;SHT31;63749;49.186;9.222;2024-02-26T12:58:16;15.73;56.05
75170;SHT31;63749;49.186;9.222;2024-02-26T13:00:42;15.91;56.69
75170;SHT31;63749;49.186;9.222;2024-02-26T13:03:09;15.79;56.88
75170;SHT31;63749;49.186;9.222;2024-02-26T13:05:35;15.93;57.12
75170;SHT31;63749;49.186;9.222;2024-02-26T13:08:01;16.20;55.25
75170;SHT31;63749;49.186;9.222;2024-02-26T13:10:26;16.04;55.66
75170;SHT31;63749;49.186;9.222;2024-02-26T13:12:52;16.01;55.96
75170;SHT31;63749;49.186;9.222;2024-02-26T13:15:20;16.08;56.61
75170;SHT31;63749;49.186;9.222;2024-02-26T13:17:46;16.04;55.32
75170;SHT31;63749;49.186;9.222;2024-02-26T13:20:12;16.15;54.97
75170;SHT31;63749;49.186;9.222;2024-02-26T13:22:38;16.21;55.61
75170;SHT31;63749;49.186;9.222;2024-02-26T13:25:04;16.40;56.48
75170;SHT31;63749;49.186;9.222;2024-02-26T13:27:32;16.41;56.21
75170;SHT31;63749;49.186;9.222;2024-02-26T13:32:35;16.84;54.66
75170;SHT31;63749;49.186;9.222;2024-02-26T13:35:19;16.80;55.12
75170;SHT31;63749;49.186;9.222;2024-02-26T13:37:44;16.96;53.97
75170;SHT31;63749;49.186;9.222;2024-02-26T13:40:11;17.21;53.13
75170;SHT31;63749;49.186;9.222;2024-02-26T13:42:37;17.11;52.64
75170;SHT31;63749;49.186;9.222;2024-02-26T13:45:03;17.98;51.94
75170;SHT31;63749;49.186;9.222;2024-02-26T13:47:32;19.14;48.61
75170;SHT31;63749;49.186;9.222;2024-02-26T13:49:57;18.65;50.90
75170;SHT31;63749;49.186;9.222;2024-02-26T13:52:23;18.12;50.68
75170;SHT31;63749;49.186;9.222;2024-02-26T13:54:48;17.40;51.61
75170;SHT31;63749;49.186;9.222;2024-02-26T13:57:14;17.13;53.11
75170;SHT31;63749;49.186;9.222;2024-02-26T13:59:39;17.11;53.21
75170;SHT31;63749;49.186;9.222;2024-02-26T14:02:08;17.02;53.30
75170;SHT31;63749;49.186;9.222;2024-02-26T14:04:33;16.96;54.22
75170;SHT31;63749;49.186;9.222;2024-02-26T14:06:59;17.14;53.46
75170;SHT31;63749;49.186;9.222;2024-02-26T14:09:24;17.75;51.99
75170;SHT31;63749;49.186;9.222;2024-02-26T14:11:49;18.68;49.75
75170;SHT31;63749;49.186;9.222;2024-02-26T14:14:14;18.05;50.57
75170;SHT31;63749;49.186;9.222;2024-02-26T14:16:40;17.44;51.80
75170;SHT31;63749;49.186;9.222;2024-02-26T14:19:05;16.84;53.55
75170;SHT31;63749;49.186;9.222;2024-02-26T14:21:31;16.55;53.94
75170;SHT31;63749;49.186;9.222;2024-02-26T14:23:56;16.18;54.65
75170;SHT31;63749;49.186;9.222;2024-02-26T14:26:22;16.08;54.86
75170;SHT31;63749;49.186;9.222;2024-02-26T14:28:48;16.05;56.16
75170;SHT31;63749;49.186;9.222;2024-02-26T14:31:17;15.91;56.09
75170;SHT31;63749;49.186;9.222;2024-02-26T14:33:42;15.79;56.09
75170;SHT31;63749;49.186;9.222;2024-02-26T14:36:08;15.64;56.25
75170;SHT31;63749;49.186;9.222;2024-02-26T14:38:33;16.03;56.01
75170;SHT31;63749;49.186;9.222;2024-02-26T14:40:59;16.29;54.80
75170;SHT31;63749;49.186;9.222;2024-02-26T14:43:24;16.80;52.58
75170;SHT31;63749;49.186;9.222;2024-02-26T14:45:49;17.13;53.00
75170;SHT31;63749;49.186;9.222;2024-02-26T14:48:15;16.79;52.81
75170;SHT31;63749;49.186;9.222;2024-02-26T14:50:40;16.38;54.14
75170;SHT31;63749;49.186;9.222;2024-02-26T14:53:05;16.07;54.84
75170;SHT31;63749;49.186;9.222;2024-02-26T14:55:31;15.84;55.23
75170;SHT31;63749;49.186;9.222;2024-02-26T14:57:57;15.91;55.42
75170;SHT31;63749;49.186;9.222;2024-02-26T15:00:22;15.87;55.20
75170;SHT31;63749;49.186;9.222;2024-02-26T15:02:48;15.57;54.69
75170;SHT31;63749;49.186;9.222;2024-02-26T15:05:13;15.38;54.68
75170;SHT31;63749;49.186;9.222;2024-02-26T15:07:39;15.15;54.69
75170;SHT31;63749;49.186;9.222;2024-02-26T15:10:06;15.15;55.40
75170;SHT31;63749;49.186;9.222;2024-02-26T15:12:32;15.29;55.66
75170;SHT31;63749;49.186;9.222;2024-02-26T15:14:57;15.11;55.48
75170;SHT31;63749;49.186;9.222;2024-02-26T15:17:23;14.74;55.96
75170;SHT31;63749;49.186;9.222;2024-02-26T15:19:49;14.56;56.71
75170;SHT31;63749;49.186;9.222;2024-02-26T15:22:14;14.44;57.49
75170;SHT31;63749;49.186;9.222;2024-02-26T15:24:40;14.19;57.94
75170;SHT31;63749;49.186;9.222;2024-02-26T15:27:05;14.06;58.71
75170;SHT31;63749;49.186;9.222;2024-02-26T15:29:30;14.02;58.96
75170;SHT31;63749;49.186;9.222;2024-02-26T15:31:56;14.05;59.15
75170;SHT31;63749;49.186;9.222;2024-02-26T15:34:21;13.94;59.96
75170;SHT31;63749;49.186;9.222;2024-02-26T15:36:46;13.90;59.56
75170;SHT31;63749;49.186;9.222;2024-02-26T15:39:12;13.85;60.02
75170;SHT31;63749;49.186;9.222;2024-02-26T15:41:37;13.75;60.69
75170;SHT31;63749;49.186;9.222;2024-02-26T15:44:03;13.74;60.53
75170;SHT31;63749;49.186;9.222;2024-02-26T15:46:29;13.61;60.56